createdAt,value
2022-12-06T00:01:14.223Z,3.29
2022-12-06T00:03:43.797Z,3.29
2022-12-06T00:06:13.747Z,3.29
2022-12-06T00:08:42.173Z,3.30
2022-12-06T00:11:12.799Z,3.29
2022-12-06T00:13:41.628Z,3.28
2022-12-06T00:16:13.185Z,3.30
2022-12-06T00:18:42.611Z,3.33
2022-12-06T00:21:12.229Z,3.31
2022-12-06T00:23:41.815Z,3.31
2022-12-06T00:26:10.419Z,3.31
2022-12-06T00:28:39.253Z,3.32
2022-12-06T00:31:11.126Z,3.31
2022-12-06T00:33:39.259Z,3.28
2022-12-06T00:36:11.184Z,3.28
2022-12-06T00:38:39.097Z,3.26
2022-12-06T00:41:09.700Z,3.21
2022-12-06T00:43:38.455Z,3.21
2022-12-06T00:46:08.679Z,3.19
2022-12-06T00:48:37.900Z,3.13
2022-12-06T00:51:06.073Z,3.09
2022-12-06T00:53:34.097Z,3.01
2022-12-06T00:56:02.070Z,3.02
2022-12-06T00:58:29.945Z,3.01
2022-12-06T01:01:07.543Z,3.05
2022-12-06T01:03:37.236Z,3.01
2022-12-06T01:06:06.261Z,2.98
2022-12-06T01:08:35.061Z,3.01
2022-12-06T01:11:03.676Z,3.00
2022-12-06T01:13:31.954Z,2.99
2022-12-06T01:16:05.934Z,2.95
2022-12-06T01:18:33.834Z,2.94
2022-12-06T01:21:06.443Z,2.94
2022-12-06T01:23:35.132Z,2.94
2022-12-06T01:26:03.010Z,2.90
2022-12-06T01:28:30.902Z,2.95
2022-12-06T01:30:59.056Z,2.94
2022-12-06T01:33:27.489Z,2.93
2022-12-06T01:35:55.771Z,2.92
2022-12-06T01:38:24.995Z,2.94
2022-12-06T01:40:53.007Z,2.95
2022-12-06T01:43:33.155Z,2.95
2022-12-06T01:46:07.182Z,2.96
2022-12-06T01:48:36.563Z,2.95
2022-12-06T01:51:06.647Z,2.94
2022-12-06T01:53:37.391Z,2.94
2022-12-06T01:56:06.147Z,2.95
2022-12-06T01:58:38.012Z,2.94
2022-12-06T02:01:06.589Z,2.94
2022-12-06T02:03:34.937Z,2.96
2022-12-06T02:06:05.353Z,2.94
2022-12-06T02:08:33.856Z,2.95
2022-12-06T02:11:05.530Z,2.96
2022-12-06T02:13:36.620Z,2.92
2022-12-06T02:16:16.556Z,2.92
2022-12-06T02:18:50.888Z,2.95
2022-12-06T02:21:29.666Z,2.94
2022-12-06T02:24:24.838Z,2.90
2022-12-06T02:27:01.519Z,2.91
2022-12-06T02:29:50.032Z,2.94
2022-12-06T02:32:24.347Z,2.94
2022-12-06T02:34:57.421Z,2.91
2022-12-06T02:37:32.327Z,2.90
2022-12-06T02:40:04.531Z,2.90
2022-12-06T02:42:37.605Z,2.90
2022-12-06T02:45:11.701Z,2.94
2022-12-06T02:47:42.087Z,2.91
2022-12-06T02:50:13.734Z,2.91
2022-12-06T02:52:45.870Z,2.91
2022-12-06T02:55:14.576Z,2.90
2022-12-06T02:57:45.326Z,2.93
2022-12-06T03:00:41.132Z,2.91
2022-12-06T03:03:36.208Z,2.91
2022-12-06T03:06:31.297Z,2.89
2022-12-06T03:09:13.766Z,2.90
2022-12-06T03:11:52.416Z,2.86
2022-12-06T03:14:24.426Z,2.87
2022-12-06T03:17:02.869Z,2.87
2022-12-06T03:19:33.651Z,2.85
2022-12-06T03:22:07.440Z,2.86
2022-12-06T03:24:38.380Z,2.86
2022-12-06T03:27:10.526Z,2.87
2022-12-06T03:29:42.252Z,2.83
2022-12-06T03:32:14.660Z,2.88
2022-12-06T03:34:47.589Z,2.86
2022-12-06T03:37:20.002Z,2.86
2022-12-06T03:39:51.388Z,2.86
2022-12-06T03:42:20.194Z,2.84
2022-12-06T03:44:48.420Z,2.84
2022-12-06T03:47:37.727Z,2.86
2022-12-06T03:50:11.506Z,2.87
2022-12-06T03:52:39.864Z,2.87
2022-12-06T03:55:08.886Z,2.85
2022-12-06T03:57:36.843Z,2.83
2022-12-06T04:00:07.108Z,2.86
2022-12-06T04:02:39.338Z,2.86
2022-12-06T04:05:09.321Z,2.83
2022-12-06T04:07:37.236Z,2.82
2022-12-06T04:10:06.516Z,2.82
2022-12-06T04:12:53.867Z,2.79
2022-12-06T04:15:23.282Z,2.80
2022-12-06T04:18:09.121Z,2.80
2022-12-06T04:20:59.289Z,2.81
2022-12-06T04:23:28.104Z,2.81
2022-12-06T04:25:56.007Z,2.85
2022-12-06T04:28:41.768Z,2.88
2022-12-06T04:31:27.008Z,2.86
2022-12-06T04:34:12.168Z,2.84
2022-12-06T04:36:59.621Z,2.88
2022-12-06T04:39:27.585Z,2.86
2022-12-06T04:42:13.515Z,2.89
2022-12-06T04:44:41.413Z,2.87
2022-12-06T04:47:09.362Z,2.92
2022-12-06T04:49:38.759Z,2.90
2022-12-06T04:52:09.766Z,2.88
2022-12-06T04:54:38.221Z,2.88
2022-12-06T04:57:10.840Z,2.93
2022-12-06T04:59:39.952Z,2.90
2022-12-06T05:02:09.988Z,2.89
2022-12-06T05:04:37.947Z,2.91
2022-12-06T05:07:06.088Z,2.91
2022-12-06T05:09:35.413Z,2.92
2022-12-06T05:12:03.274Z,2.89
2022-12-06T05:14:31.399Z,2.93
2022-12-06T05:17:00.005Z,2.93
2022-12-06T05:19:28.393Z,2.91
2022-12-06T05:21:56.263Z,2.90
2022-12-06T05:24:24.141Z,2.95
2022-12-06T05:26:53.429Z,2.96
2022-12-06T05:29:21.270Z,2.90
2022-12-06T05:31:49.099Z,2.92
2022-12-06T05:34:17.053Z,2.88
2022-12-06T05:36:46.096Z,2.89
2022-12-06T05:39:14.052Z,2.91
2022-12-06T05:41:41.947Z,2.88
2022-12-06T05:44:12.119Z,2.84
2022-12-06T05:46:41.272Z,2.86
2022-12-06T05:49:09.162Z,2.88
2022-12-06T05:51:37.258Z,2.82
2022-12-06T05:54:06.699Z,2.83
2022-12-06T05:56:34.810Z,2.86
2022-12-06T05:59:03.412Z,2.83
2022-12-06T06:01:32.886Z,2.83
2022-12-06T06:04:01.772Z,2.91
2022-12-06T06:06:29.887Z,2.84
2022-12-06T06:08:57.793Z,2.90
2022-12-06T06:11:25.651Z,2.87
2022-12-06T06:13:54.456Z,2.91
2022-12-06T06:16:22.497Z,2.92
2022-12-06T06:18:51.867Z,2.92
2022-12-06T06:21:19.733Z,2.90
2022-12-06T06:23:47.512Z,2.87
2022-12-06T06:26:15.376Z,2.90
2022-12-06T06:28:43.215Z,2.89
2022-12-06T06:31:11.146Z,2.89
2022-12-06T06:33:39.040Z,2.87
2022-12-06T06:36:09.146Z,2.88
2022-12-06T06:38:37.047Z,2.88
2022-12-06T06:41:06.021Z,2.87
2022-12-06T06:43:33.887Z,2.86
2022-12-06T06:46:03.629Z,2.86
2022-12-06T06:48:34.285Z,2.84
2022-12-06T06:51:04.242Z,2.84
2022-12-06T06:53:33.851Z,2.83
2022-12-06T06:56:02.655Z,2.82
2022-12-06T06:58:30.497Z,2.85
2022-12-06T07:01:01.209Z,2.85
2022-12-06T07:03:30.283Z,2.86
2022-12-06T07:06:00.673Z,2.89
2022-12-06T07:08:29.848Z,2.93
2022-12-06T07:10:59.611Z,2.90
2022-12-06T07:13:29.050Z,2.87
2022-12-06T07:15:58.417Z,2.87
2022-12-06T07:18:27.137Z,2.89
2022-12-06T07:21:01.356Z,2.86
2022-12-06T07:23:29.255Z,2.89
2022-12-06T07:26:06.227Z,2.89
2022-12-06T07:28:36.441Z,2.91
2022-12-06T07:31:09.577Z,2.93
2022-12-06T07:33:38.399Z,2.94
2022-12-06T07:36:14.567Z,2.92
2022-12-06T07:38:43.705Z,2.91
2022-12-06T07:41:32.156Z,2.95
2022-12-06T07:44:19.375Z,2.95
2022-12-06T07:46:48.001Z,2.94
2022-12-06T07:49:16.939Z,2.93
2022-12-06T07:51:45.410Z,2.96
2022-12-06T07:54:13.889Z,2.91
2022-12-06T07:56:43.898Z,2.93
2022-12-06T07:59:11.839Z,2.92
2022-12-06T08:01:40.157Z,2.93
2022-12-06T08:04:08.867Z,2.93
2022-12-06T08:06:37.160Z,2.97
2022-12-06T08:09:05.296Z,2.90
2022-12-06T08:11:33.357Z,2.91
2022-12-06T08:14:02.757Z,2.90
2022-12-06T08:16:30.702Z,2.93
2022-12-06T08:18:58.657Z,2.92
2022-12-06T08:21:26.949Z,2.88
2022-12-06T08:23:55.835Z,2.91
2022-12-06T08:26:24.545Z,2.96
2022-12-06T08:28:52.658Z,2.96
2022-12-06T08:31:23.600Z,2.95
2022-12-06T08:33:51.747Z,2.97
2022-12-06T08:36:21.122Z,2.98
2022-12-06T08:38:50.272Z,2.94
2022-12-06T08:41:35.731Z,2.99
2022-12-06T08:44:04.840Z,3.01
2022-12-06T08:46:35.374Z,3.00
2022-12-06T08:49:03.597Z,3.01
2022-12-06T08:51:32.485Z,3.07
2022-12-06T08:54:00.345Z,3.06
2022-12-06T08:56:29.027Z,3.09
2022-12-06T08:58:57.712Z,3.08
2022-12-06T09:01:32.537Z,3.10
2022-12-06T09:04:06.860Z,3.11
2022-12-06T09:06:34.991Z,3.16
2022-12-06T09:09:02.925Z,3.18
2022-12-06T09:11:30.865Z,3.24
2022-12-06T09:13:59.163Z,3.22
2022-12-06T09:16:27.206Z,3.22
2022-12-06T09:18:55.179Z,3.25
2022-12-06T09:21:26.476Z,3.29
2022-12-06T09:23:56.579Z,3.31
2022-12-06T09:26:25.103Z,3.35
2022-12-06T09:28:54.723Z,3.35
2022-12-06T09:31:23.302Z,3.37
2022-12-06T09:33:51.489Z,3.40
2022-12-06T09:36:23.615Z,3.41
2022-12-06T09:38:58.263Z,3.42
2022-12-06T09:42:19.137Z,3.47
2022-12-06T09:45:09.131Z,3.49
2022-12-06T09:47:50.519Z,3.57
2022-12-06T09:50:31.099Z,3.54
2022-12-06T09:53:15.833Z,3.54
2022-12-06T09:56:03.841Z,3.55
2022-12-06T09:58:47.126Z,3.56
2022-12-06T10:01:23.638Z,3.57
2022-12-06T10:04:03.560Z,3.60
2022-12-06T10:06:39.741Z,3.62
2022-12-06T10:09:25.482Z,3.60
2022-12-06T10:12:15.153Z,3.63
2022-12-06T10:15:17.119Z,3.59
2022-12-06T10:17:59.079Z,3.59
2022-12-06T10:20:35.921Z,3.52
2022-12-06T10:23:18.774Z,3.52
2022-12-06T10:25:55.596Z,3.53
2022-12-06T10:28:35.729Z,3.59
2022-12-06T10:31:14.267Z,3.60
2022-12-06T10:33:53.679Z,3.61
2022-12-06T10:36:34.371Z,3.63
2022-12-06T10:39:10.860Z,3.67
2022-12-06T10:41:44.612Z,3.66
2022-12-06T10:44:21.287Z,3.63
2022-12-06T10:47:06.307Z,3.72
2022-12-06T10:49:45.203Z,3.65
2022-12-06T10:52:26.879Z,3.70
2022-12-06T10:55:03.804Z,3.73
2022-12-06T10:57:37.644Z,3.61
2022-12-06T11:00:15.795Z,3.69
2022-12-06T11:02:53.477Z,3.75
2022-12-06T11:05:25.631Z,3.77
2022-12-06T11:08:00.403Z,3.74
2022-12-06T11:10:32.902Z,3.71
2022-12-06T11:13:10.708Z,3.74
2022-12-06T11:15:49.117Z,3.80
2022-12-06T11:18:19.559Z,3.74
2022-12-06T11:20:50.923Z,3.72
2022-12-06T11:23:26.880Z,3.76
2022-12-06T11:26:07.707Z,3.81
2022-12-06T11:28:38.898Z,3.83
2022-12-06T11:31:19.114Z,3.85
2022-12-06T11:33:47.546Z,3.83
2022-12-06T11:36:16.305Z,3.80
2022-12-06T11:38:45.950Z,3.87
2022-12-06T11:41:22.333Z,3.90
2022-12-06T11:43:51.371Z,3.92
2022-12-06T11:46:22.111Z,3.89
2022-12-06T11:48:50.150Z,3.81
2022-12-06T11:51:21.058Z,3.81
2022-12-06T11:54:07.704Z,3.83
2022-12-06T11:56:39.182Z,3.80
2022-12-06T11:59:20.487Z,3.85
2022-12-06T12:01:51.616Z,3.81
2022-12-06T12:04:35.693Z,3.83
2022-12-06T12:07:07.021Z,3.78
2022-12-06T12:09:38.061Z,3.77
2022-12-06T12:12:14.068Z,3.81
2022-12-06T12:14:47.922Z,3.76
2022-12-06T12:17:24.005Z,3.84
2022-12-06T12:19:58.272Z,3.84
2022-12-06T12:22:36.697Z,3.80
2022-12-06T12:25:23.593Z,3.78
2022-12-06T12:27:53.652Z,3.81
2022-12-06T12:30:27.886Z,3.76
2022-12-06T12:33:17.512Z,3.64
2022-12-06T12:35:47.445Z,3.70
2022-12-06T12:38:21.232Z,3.68
2022-12-06T12:40:52.329Z,3.60
2022-12-06T12:43:23.213Z,3.57
2022-12-06T12:46:16.995Z,3.60
2022-12-06T12:48:48.030Z,3.49
2022-12-06T12:51:34.455Z,3.51
2022-12-06T12:54:05.354Z,3.46
2022-12-06T12:58:05.925Z,3.43
2022-12-06T13:00:38.553Z,3.40
2022-12-06T13:03:34.836Z,3.42
2022-12-06T13:06:01.524Z,3.45
2022-12-06T13:08:34.595Z,3.42
2022-12-06T13:11:05.204Z,3.45
2022-12-06T13:13:36.834Z,3.38
2022-12-06T13:16:11.698Z,3.34
2022-12-06T13:18:43.984Z,3.34
2022-12-06T13:21:20.600Z,3.37
2022-12-06T13:23:51.110Z,3.32
2022-12-06T13:26:26.743Z,3.34
2022-12-06T13:28:57.498Z,3.31
2022-12-06T13:31:31.231Z,3.32
2022-12-06T13:34:03.536Z,3.29
2022-12-06T13:36:34.818Z,3.30
2022-12-06T13:39:33.557Z,3.22
2022-12-06T13:42:20.242Z,3.17
2022-12-06T13:44:59.732Z,3.27
2022-12-06T13:47:53.334Z,3.26
2022-12-06T13:50:51.710Z,3.26
2022-12-06T13:53:22.079Z,3.26
2022-12-06T13:55:57.697Z,3.24
2022-12-06T13:58:43.138Z,3.24
2022-12-06T14:01:40.359Z,3.29
2022-12-06T14:04:39.425Z,3.22
2022-12-06T14:09:43.550Z,3.21
2022-12-06T14:12:18.959Z,3.25
2022-12-06T14:14:57.364Z,3.31
2022-12-06T14:18:00.287Z,3.28
2022-12-06T14:20:21.859Z,3.20
2022-12-06T14:22:49.926Z,3.22
2022-12-06T14:25:22.287Z,3.23
2022-12-06T14:27:53.034Z,3.22
2022-12-06T14:30:26.028Z,3.20
2022-12-06T14:32:56.095Z,3.20
2022-12-06T14:35:26.513Z,3.18
2022-12-06T14:37:56.690Z,3.20
2022-12-06T14:40:45.732Z,3.22
2022-12-06T14:43:17.327Z,3.22
2022-12-06T14:45:46.723Z,3.15
2022-12-06T14:48:14.903Z,3.21
2022-12-06T14:50:45.302Z,3.21
2022-12-06T14:53:15.368Z,3.12
2022-12-06T14:55:56.636Z,3.01
2022-12-06T14:58:27.085Z,3.15
2022-12-06T15:00:57.276Z,3.18
2022-12-06T15:03:29.132Z,3.17
2022-12-06T15:06:19.062Z,3.17
2022-12-06T15:08:53.632Z,3.10
2022-12-06T15:11:49.184Z,3.11
2022-12-06T15:14:19.522Z,3.10
2022-12-06T15:16:57.884Z,3.12
2022-12-06T15:19:25.806Z,3.13
2022-12-06T15:21:53.629Z,3.12
2022-12-06T15:24:23.309Z,3.11
2022-12-06T15:26:53.180Z,3.12
2022-12-06T15:29:21.085Z,3.12
2022-12-06T15:31:53.195Z,3.15
2022-12-06T15:34:27.616Z,3.13
2022-12-06T15:37:29.863Z,3.12
2022-12-06T15:39:44.954Z,3.07
2022-12-06T15:42:18.892Z,3.12
2022-12-06T15:44:49.431Z,3.04
2022-12-06T15:47:18.371Z,3.10
2022-12-06T15:49:46.461Z,3.09
2022-12-06T15:52:17.582Z,3.12
2022-12-06T15:54:46.062Z,2.99
2022-12-06T15:57:15.297Z,3.05
2022-12-06T15:59:43.108Z,3.01
2022-12-06T16:02:15.357Z,3.03
2022-12-06T16:04:43.910Z,3.03
2022-12-06T16:07:18.374Z,2.99
2022-12-06T16:09:46.249Z,3.04
2022-12-06T16:12:15.715Z,2.95
2022-12-06T16:14:43.810Z,2.99
2022-12-06T16:17:11.907Z,3.02
2022-12-06T16:19:57.193Z,3.00
2022-12-06T16:22:45.191Z,2.94
2022-12-06T16:25:11.872Z,2.97
2022-12-06T16:27:40.900Z,2.98
2022-12-06T16:30:10.192Z,2.96
2022-12-06T16:32:37.994Z,2.94
2022-12-06T16:35:06.157Z,2.97
2022-12-06T16:37:33.977Z,2.97
2022-12-06T16:40:01.803Z,2.98
2022-12-06T16:42:29.669Z,2.96
2022-12-06T16:44:59.239Z,2.95
2022-12-06T16:49:53.841Z,2.94
2022-12-06T16:52:21.556Z,2.96
2022-12-06T16:54:49.342Z,2.97
2022-12-06T16:57:19.398Z,2.98
2022-12-06T16:59:47.257Z,2.94
2022-12-06T17:02:26.851Z,2.93
2022-12-06T17:04:55.385Z,2.94
2022-12-06T17:07:23.153Z,2.95
2022-12-06T17:09:50.952Z,2.95
2022-12-06T17:12:18.762Z,2.93
2022-12-06T17:14:46.789Z,2.96
2022-12-06T17:17:15.224Z,2.99
2022-12-06T17:19:45.462Z,2.97
2022-12-06T17:22:16.280Z,2.92
2022-12-06T17:24:44.139Z,2.97
2022-12-06T17:27:14.457Z,2.97
2022-12-06T17:29:42.762Z,2.97
2022-12-06T17:32:11.399Z,2.98
2022-12-06T17:34:39.331Z,2.99
2022-12-06T17:37:08.694Z,2.93
2022-12-06T17:39:36.470Z,2.97
2022-12-06T17:42:21.631Z,2.97
2022-12-06T17:44:50.619Z,2.96
2022-12-06T17:47:18.522Z,2.94
2022-12-06T17:49:46.336Z,2.96
2022-12-06T17:52:16.117Z,2.97
2022-12-06T17:54:44.448Z,2.89
2022-12-06T17:57:16.189Z,2.96
2022-12-06T17:59:44.844Z,2.98
2022-12-06T18:02:15.931Z,2.99
2022-12-06T18:04:44.825Z,2.97
2022-12-06T18:07:13.301Z,2.97
2022-12-06T18:09:42.529Z,3.01
2022-12-06T18:12:11.265Z,3.01
2022-12-06T18:14:39.111Z,3.01
2022-12-06T18:17:07.184Z,3.02
2022-12-06T18:19:35.814Z,3.02
2022-12-06T18:22:04.109Z,3.03
2022-12-06T18:24:35.890Z,3.00
2022-12-06T18:27:05.928Z,3.00
2022-12-06T18:29:34.301Z,3.02
2022-12-06T18:32:02.284Z,3.02
2022-12-06T18:34:30.357Z,3.03
2022-12-06T18:36:58.153Z,3.02
2022-12-06T18:39:26.498Z,3.01
2022-12-06T18:41:55.542Z,3.00
2022-12-06T18:44:25.586Z,3.01
2022-12-06T18:46:53.608Z,3.04
2022-12-06T18:49:21.470Z,3.02
2022-12-06T18:51:49.302Z,3.04
2022-12-06T18:54:17.161Z,3.04
2022-12-06T18:56:45.035Z,2.99
2022-12-06T18:59:13.178Z,3.01
2022-12-06T19:01:42.996Z,3.03
2022-12-06T19:04:14.626Z,3.02
2022-12-06T19:06:44.648Z,3.02
2022-12-06T19:09:15.445Z,3.02
2022-12-06T19:11:45.897Z,3.02
2022-12-06T19:14:14.725Z,3.02
2022-12-06T19:16:45.932Z,3.00
2022-12-06T19:19:17.155Z,3.00
2022-12-06T19:21:45.658Z,3.01
2022-12-06T19:24:15.556Z,3.01
2022-12-06T19:26:43.890Z,2.95
2022-12-06T19:29:11.755Z,3.01
2022-12-06T19:31:39.599Z,3.00
2022-12-06T19:34:14.993Z,2.96
2022-12-06T19:36:43.201Z,3.00
2022-12-06T19:39:11.917Z,2.98
2022-12-06T19:41:53.683Z,2.99
2022-12-06T19:44:21.669Z,2.96
2022-12-06T19:46:49.584Z,2.96
2022-12-06T19:49:20.971Z,3.00
2022-12-06T19:51:49.877Z,2.99
2022-12-06T19:54:22.015Z,2.99
2022-12-06T19:56:50.390Z,2.95
2022-12-06T19:59:18.247Z,2.95
2022-12-06T20:01:47.781Z,2.99
2022-12-06T20:04:16.820Z,2.97
2022-12-06T20:06:46.484Z,2.96
2022-12-06T20:09:14.577Z,2.95
2022-12-06T20:12:00.672Z,2.97
2022-12-06T20:14:29.898Z,2.93
2022-12-06T20:16:57.977Z,2.99
2022-12-06T20:19:25.871Z,2.98
2022-12-06T20:21:55.046Z,2.95
2022-12-06T20:24:23.952Z,2.95
2022-12-06T20:26:54.197Z,2.95
2022-12-06T20:29:22.595Z,2.94
2022-12-06T20:31:51.610Z,2.95
2022-12-06T20:34:20.210Z,2.96
2022-12-06T20:36:48.291Z,2.95
2022-12-06T20:39:21.678Z,2.97
2022-12-06T20:41:50.609Z,2.99
2022-12-06T20:44:19.825Z,2.99
2022-12-06T20:46:49.939Z,3.03
2022-12-06T20:49:18.452Z,3.00
2022-12-06T20:51:52.428Z,3.00
2022-12-06T20:54:22.595Z,2.97
2022-12-06T20:56:53.120Z,3.00
2022-12-06T20:59:21.612Z,2.95
2022-12-06T21:01:49.571Z,2.95
2022-12-06T21:04:18.225Z,2.95
2022-12-06T21:06:46.154Z,2.90
2022-12-06T21:09:14.128Z,2.95
2022-12-06T21:11:43.319Z,2.96
2022-12-06T21:14:13.965Z,2.99
2022-12-06T21:16:43.147Z,2.96
2022-12-06T21:19:14.125Z,2.93
2022-12-06T21:21:45.052Z,2.93
2022-12-06T21:24:15.378Z,2.92
2022-12-06T21:26:44.592Z,2.95
2022-12-06T21:29:16.858Z,2.93
2022-12-06T21:31:45.217Z,2.96
2022-12-06T21:34:13.408Z,2.96
2022-12-06T21:36:41.951Z,2.97
2022-12-06T21:39:11.099Z,2.96
2022-12-06T21:41:39.758Z,2.94
2022-12-06T21:44:09.005Z,2.97
2022-12-06T21:46:36.899Z,2.93
2022-12-06T21:49:04.898Z,2.96
2022-12-06T21:51:33.158Z,2.96
2022-12-06T21:54:01.540Z,2.94
2022-12-06T21:56:32.784Z,2.97
2022-12-06T21:59:01.390Z,2.95
2022-12-06T22:01:32.239Z,2.92
2022-12-06T22:04:02.214Z,2.93
2022-12-06T22:06:31.435Z,2.89
2022-12-06T22:09:01.176Z,2.88
2022-12-06T22:11:30.161Z,2.88
2022-12-06T22:14:00.803Z,2.78
2022-12-06T22:16:30.258Z,2.83
2022-12-06T22:18:58.781Z,2.83
2022-12-06T22:21:28.851Z,2.84
2022-12-06T22:23:57.972Z,2.82
2022-12-06T22:26:28.607Z,2.81
2022-12-06T22:28:56.904Z,2.76
2022-12-06T22:31:26.754Z,2.83
2022-12-06T22:33:57.400Z,2.83
2022-12-06T22:36:25.651Z,2.83
2022-12-06T22:38:55.292Z,2.83
2022-12-06T22:41:24.187Z,2.82
2022-12-06T22:43:53.173Z,2.86
2022-12-06T22:46:21.747Z,2.85
2022-12-06T22:48:50.424Z,2.85
2022-12-06T22:51:22.330Z,2.80
2022-12-06T22:53:54.155Z,2.83
2022-12-06T22:56:22.074Z,2.84
2022-12-06T22:58:50.316Z,2.78
2022-12-06T23:01:21.026Z,2.83
2022-12-06T23:03:51.026Z,2.79
2022-12-06T23:06:22.594Z,2.69
2022-12-06T23:08:50.746Z,2.77
2022-12-06T23:11:20.965Z,2.77
2022-12-06T23:13:49.155Z,2.82
2022-12-06T23:16:18.919Z,2.81
2022-12-06T23:18:47.393Z,2.84
2022-12-06T23:21:17.679Z,2.81
2022-12-06T23:23:49.686Z,2.81
2022-12-06T23:26:19.907Z,2.80
2022-12-06T23:28:48.272Z,2.81
2022-12-06T23:31:18.930Z,2.84
2022-12-06T23:33:47.625Z,2.83
2022-12-06T23:36:17.326Z,2.87
2022-12-06T23:38:46.852Z,2.85
2022-12-06T23:41:17.063Z,2.86
2022-12-06T23:43:45.289Z,2.83
2022-12-06T23:46:22.146Z,2.86
2022-12-06T23:48:50.787Z,2.84
2022-12-06T23:51:21.645Z,2.89
2022-12-06T23:53:53.412Z,2.89
2022-12-06T23:56:22.488Z,2.87
2022-12-06T23:58:51.336Z,2.88
